sensor_id;sensor_type;location;lat;lon;timestamp;pressure;altitude;pressure_sealevel;temperature;humidity
22753;BME280;11543;43.144;24.684;2023-04-25T07:40:48;97848.97;;;18.42;61.12
22753;BME280;11543;43.144;24.684;2023-04-25T08:43:29;97857.91;;;19.91;57.68
22753;BME280;11543;43.144;24.684;2023-04-25T08:46:40;97846.06;;;20.09;54.77
22753;BME280;11543;43.144;24.684;2023-04-25T08:50:05;97836.09;;;20.15;54.55
22753;BME280;11543;43.144;24.684;2023-04-25T08:53:04;97842.09;;;20.28;55.46
22753;BME280;11543;43.144;24.684;2023-04-25T09:06:04;97834.34;;;20.77;54.29
22753;BME280;11543;43.144;24.684;2023-04-25T09:08:33;97846.31;;;20.76;51.74
22753;BME280;11543;43.144;24.684;2023-04-25T09:11:19;97853.09;;;21.02;53.18
22753;BME280;11543;43.144;24.684;2023-04-25T09:17:06;97836.09;;;21.45;51.60
22753;BME280;11543;43.144;24.684;2023-04-25T09:27:18;97844.75;;;22.14;49.35
22753;BME280;11543;43.144;24.684;2023-04-25T09:30:15;97832.19;;;22.13;48.79
22753;BME280;11543;43.144;24.684;2023-04-25T09:32:43;97837.38;;;22.37;50.02
22753;BME280;11543;43.144;24.684;2023-04-25T09:35:09;97828.41;;;22.63;47.05
22753;BME280;11543;43.144;24.684;2023-04-25T09:37:34;97816.50;;;22.74;46.80
22753;BME280;11543;43.144;24.684;2023-04-25T09:40:04;97814.47;;;22.86;47.53
22753;BME280;11543;43.144;24.684;2023-04-25T09:42:41;97828.88;;;23.09;46.95
22753;BME280;11543;43.144;24.684;2023-04-25T09:45:16;97838.13;;;23.03;47.64
22753;BME280;11543;43.144;24.684;2023-04-25T09:48:04;97825.53;;;23.02;45.95
22753;BME280;11543;43.144;24.684;2023-04-25T09:50:43;97833.22;;;23.05;46.68
22753;BME280;11543;43.144;24.684;2023-04-25T09:53:29;97822.50;;;22.71;49.24
22753;BME280;11543;43.144;24.684;2023-04-25T09:55:58;97822.19;;;22.95;49.37
22753;BME280;11543;43.144;24.684;2023-04-25T09:58:32;97821.97;;;23.01;51.12
22753;BME280;11543;43.144;24.684;2023-04-25T10:01:02;97818.94;;;22.98;49.28
22753;BME280;11543;43.144;24.684;2023-04-25T10:03:30;97835.44;;;23.08;49.81
22753;BME280;11543;43.144;24.684;2023-04-25T10:05:59;97809.47;;;23.10;52.90
22753;BME280;11543;43.144;24.684;2023-04-25T10:08:30;97816.69;;;23.22;51.56
22753;BME280;11543;43.144;24.684;2023-04-25T10:11:02;97807.34;;;22.85;51.65
22753;BME280;11543;43.144;24.684;2023-04-25T10:13:31;97823.91;;;22.52;49.81
22753;BME280;11543;43.144;24.684;2023-04-25T10:15:58;97835.38;;;22.27;50.25
22753;BME280;11543;43.144;24.684;2023-04-25T10:18:28;97822.28;;;22.07;50.49
22753;BME280;11543;43.144;24.684;2023-04-25T10:20:59;97803.94;;;21.86;50.68
22753;BME280;11543;43.144;24.684;2023-04-25T10:23:25;97805.97;;;21.74;51.57
22753;BME280;11543;43.144;24.684;2023-04-25T10:25:52;97826.72;;;21.75;52.06
22753;BME280;11543;43.144;24.684;2023-04-25T10:28:19;97816.72;;;21.63;52.79
22753;BME280;11543;43.144;24.684;2023-04-25T10:31:04;97807.00;;;21.34;53.78
22753;BME280;11543;43.144;24.684;2023-04-25T10:33:40;97825.31;;;21.55;54.66
22753;BME280;11543;43.144;24.684;2023-04-25T10:36:12;97799.03;;;21.49;54.57
22753;BME280;11543;43.144;24.684;2023-04-25T10:38:39;97809.09;;;21.66;53.35
22753;BME280;11543;43.144;24.684;2023-04-25T10:41:06;97799.50;;;21.80;53.65
22753;BME280;11543;43.144;24.684;2023-04-25T10:43:46;97802.00;;;22.03;52.63
22753;BME280;11543;43.144;24.684;2023-04-25T10:46:17;97795.78;;;22.08;53.89
22753;BME280;11543;43.144;24.684;2023-04-25T10:48:54;97803.28;;;22.17;51.58
22753;BME280;11543;43.144;24.684;2023-04-25T10:54:07;97808.22;;;22.20;54.15
22753;BME280;11543;43.144;24.684;2023-04-25T10:56:37;97784.66;;;22.14;53.54
22753;BME280;11543;43.144;24.684;2023-04-25T10:59:10;97793.75;;;22.20;53.68
22753;BME280;11543;43.144;24.684;2023-04-25T11:01:46;97790.16;;;21.76;53.31
22753;BME280;11543;43.144;24.684;2023-04-25T11:04:23;97804.63;;;21.76;56.32
22753;BME280;11543;43.144;24.684;2023-04-25T11:20:41;97818.66;;;18.87;74.78
22753;BME280;11543;43.144;24.684;2023-04-25T11:23:11;97825.91;;;19.05;74.78
22753;BME280;11543;43.144;24.684;2023-04-25T11:25:44;97820.75;;;19.15;75.33
22753;BME280;11543;43.144;24.684;2023-04-25T11:28:29;97815.44;;;19.32;76.20
22753;BME280;11543;43.144;24.684;2023-04-25T11:30:58;97801.72;;;19.50;77.23
22753;BME280;11543;43.144;24.684;2023-04-25T11:33:24;97815.44;;;19.79;79.41
22753;BME280;11543;43.144;24.684;2023-04-25T11:35:59;97800.50;;;19.93;82.53
22753;BME280;11543;43.144;24.684;2023-04-25T11:39:00;97793.91;;;20.29;81.31
22753;BME280;11543;43.144;24.684;2023-04-25T11:41:30;97783.75;;;20.53;80.13
22753;BME280;11543;43.144;24.684;2023-04-25T11:43:56;97784.38;;;20.72;79.27
22753;BME280;11543;43.144;24.684;2023-04-25T11:46:21;97785.66;;;20.97;75.32
22753;BME280;11543;43.144;24.684;2023-04-25T11:48:57;97766.31;;;21.16;73.23
22753;BME280;11543;43.144;24.684;2023-04-25T11:51:37;97768.94;;;21.44;71.01
22753;BME280;11543;43.144;24.684;2023-04-25T11:54:13;97771.56;;;21.73;66.66
22753;BME280;11543;43.144;24.684;2023-04-25T11:56:44;97767.13;;;22.10;66.71
22753;BME280;11543;43.144;24.684;2023-04-25T11:59:11;97779.03;;;22.48;62.12
22753;BME280;11543;43.144;24.684;2023-04-25T12:01:48;97767.72;;;22.61;59.79
22753;BME280;11543;43.144;24.684;2023-04-25T12:04:22;97754.09;;;22.66;60.01
22753;BME280;11543;43.144;24.684;2023-04-25T12:06:50;97769.66;;;22.93;58.32
22753;BME280;11543;43.144;24.684;2023-04-25T12:09:18;97766.22;;;23.07;57.80
22753;BME280;11543;43.144;24.684;2023-04-25T12:11:48;97743.06;;;23.20;55.61
22753;BME280;11543;43.144;24.684;2023-04-25T12:14:25;97744.44;;;23.55;54.06
22753;BME280;11543;43.144;24.684;2023-04-25T12:16:52;97732.75;;;23.74;53.05
22753;BME280;11543;43.144;24.684;2023-04-25T12:19:23;97729.78;;;23.86;54.78
22753;BME280;11543;43.144;24.684;2023-04-25T12:21:49;97744.09;;;23.98;51.75
22753;BME280;11543;43.144;24.684;2023-04-25T12:24:22;97750.22;;;24.26;49.39
22753;BME280;11543;43.144;24.684;2023-04-25T12:29:18;97758.19;;;24.27;45.46
22753;BME280;11543;43.144;24.684;2023-04-25T12:31:44;97742.47;;;24.02;46.31
22753;BME280;11543;43.144;24.684;2023-04-25T12:34:10;97767.66;;;23.99;46.83
22753;BME280;11543;43.144;24.684;2023-04-25T12:36:36;97770.81;;;23.71;48.38
22753;BME280;11543;43.144;24.684;2023-04-25T12:39:02;97768.56;;;23.26;48.69
22753;BME280;11543;43.144;24.684;2023-04-25T12:41:29;97761.50;;;22.98;48.59
22753;BME280;11543;43.144;24.684;2023-04-25T12:43:55;97777.59;;;22.67;49.08
22753;BME280;11543;43.144;24.684;2023-04-25T12:46:21;97762.19;;;22.07;49.47
22753;BME280;11543;43.144;24.684;2023-04-25T12:48:48;97762.69;;;21.66;51.89
22753;BME280;11543;43.144;24.684;2023-04-25T12:51:13;97766.16;;;21.39;52.86
22753;BME280;11543;43.144;24.684;2023-04-25T12:53:39;97766.09;;;20.72;54.98
22753;BME280;11543;43.144;24.684;2023-04-25T12:56:06;97796.00;;;20.39;56.38
22753;BME280;11543;43.144;24.684;2023-04-25T12:58:32;97778.41;;;19.78;61.02
22753;BME280;11543;43.144;24.684;2023-04-25T13:00:59;97826.09;;;19.45;63.77
22753;BME280;11543;43.144;24.684;2023-04-25T13:03:42;97853.38;;;17.89;64.63
22753;BME280;11543;43.144;24.684;2023-04-25T13:06:14;97894.44;;;16.48;69.96
22753;BME280;11543;43.144;24.684;2023-04-25T13:12:07;97875.97;;;14.94;75.84
22753;BME280;11543;43.144;24.684;2023-04-25T13:14:33;97870.88;;;14.58;76.83
22753;BME280;11543;43.144;24.684;2023-04-25T13:16:59;97876.38;;;14.24;78.61
22753;BME280;11543;43.144;24.684;2023-04-25T13:19:30;97896.44;;;14.08;81.13
22753;BME280;11543;43.144;24.684;2023-04-25T15:06:05;97824.66;;;17.13;83.68
22753;BME280;11543;43.144;24.684;2023-04-25T15:08:31;97847.72;;;17.47;82.49
22753;BME280;11543;43.144;24.684;2023-04-25T15:11:10;97846.09;;;17.64;82.05
22753;BME280;11543;43.144;24.684;2023-04-25T15:13:38;97841.00;;;17.74;80.56
22753;BME280;11543;43.144;24.684;2023-04-25T15:16:05;97838.28;;;17.93;78.64
22753;BME280;11543;43.144;24.684;2023-04-25T15:19:20;97824.25;;;18.14;76.27
22753;BME280;11543;43.144;24.684;2023-04-25T15:22:04;97828.53;;;18.40;74.84
22753;BME280;11543;43.144;24.684;2023-04-25T15:24:33;97814.63;;;18.48;73.00
22753;BME280;11543;43.144;24.684;2023-04-25T15:30:54;97800.72;;;18.86;71.17
22753;BME280;11543;43.144;24.684;2023-04-25T15:40:26;97805.75;;;19.36;68.66
22753;BME280;11543;43.144;24.684;2023-04-25T15:46:40;97793.56;;;19.38;67.65
22753;BME280;11543;43.144;24.684;2023-04-25T15:49:33;97797.00;;;19.57;67.15
22753;BME280;11543;43.144;24.684;2023-04-25T16:08:35;97758.06;;;19.45;62.66
22753;BME280;11543;43.144;24.684;2023-04-25T16:25:03;97756.44;;;19.32;63.32
22753;BME280;11543;43.144;24.684;2023-04-25T16:31:15;97764.72;;;19.37;63.36
22753;BME280;11543;43.144;24.684;2023-04-25T16:33:41;97744.97;;;19.19;63.87
22753;BME280;11543;43.144;24.684;2023-04-25T16:39:59;97750.19;;;19.08;64.28
22753;BME280;11543;43.144;24.684;2023-04-25T16:49:54;97760.88;;;18.80;63.86
22753;BME280;11543;43.144;24.684;2023-04-25T17:58:00;97867.78;;;17.14;69.24
22753;BME280;11543;43.144;24.684;2023-04-25T18:15:08;97889.22;;;16.91;69.74
22753;BME280;11543;43.144;24.684;2023-04-25T18:23:55;97880.41;;;16.64;70.10
22753;BME280;11543;43.144;24.684;2023-04-25T18:26:20;97880.22;;;16.66;70.18
22753;BME280;11543;43.144;24.684;2023-04-25T18:28:46;97897.25;;;16.73;70.28
22753;BME280;11543;43.144;24.684;2023-04-25T18:31:11;97886.88;;;16.63;70.32
22753;BME280;11543;43.144;24.684;2023-04-25T18:33:38;97889.63;;;16.56;70.46
22753;BME280;11543;43.144;24.684;2023-04-25T18:36:06;97896.13;;;16.49;70.73
22753;BME280;11543;43.144;24.684;2023-04-25T18:38:32;97878.66;;;16.32;71.13
22753;BME280;11543;43.144;24.684;2023-04-25T18:40:57;97889.50;;;16.32;71.65
22753;BME280;11543;43.144;24.684;2023-04-25T18:43:23;97899.50;;;16.31;71.71
22753;BME280;11543;43.144;24.684;2023-04-25T18:45:48;97896.59;;;16.26;72.18
22753;BME280;11543;43.144;24.684;2023-04-25T18:48:14;97885.16;;;16.24;72.21
22753;BME280;11543;43.144;24.684;2023-04-25T18:50:59;97901.97;;;16.39;71.93
22753;BME280;11543;43.144;24.684;2023-04-25T18:53:30;97887.44;;;16.27;72.01
22753;BME280;11543;43.144;24.684;2023-04-25T18:55:55;97906.31;;;16.40;71.85
22753;BME280;11543;43.144;24.684;2023-04-25T18:58:22;97892.81;;;16.34;71.83
22753;BME280;11543;43.144;24.684;2023-04-25T19:00:47;97906.94;;;16.42;71.72
22753;BME280;11543;43.144;24.684;2023-04-25T19:03:15;97891.38;;;16.31;71.90
22753;BME280;11543;43.144;24.684;2023-04-25T19:05:41;97890.75;;;16.29;71.96
22753;BME280;11543;43.144;24.684;2023-04-25T19:08:06;97892.00;;;16.33;71.87
22753;BME280;11543;43.144;24.684;2023-04-25T19:10:32;97911.09;;;16.45;71.81
22753;BME280;11543;43.144;24.684;2023-04-25T19:12:58;97897.41;;;16.33;71.84
22753;BME280;11543;43.144;24.684;2023-04-25T19:15:23;97911.56;;;16.35;72.10
22753;BME280;11543;43.144;24.684;2023-04-25T19:17:49;97916.56;;;16.32;72.25
22753;BME280;11543;43.144;24.684;2023-04-25T19:20:15;97906.56;;;16.32;72.42
22753;BME280;11543;43.144;24.684;2023-04-25T19:22:41;97904.47;;;16.34;72.29
22753;BME280;11543;43.144;24.684;2023-04-25T19:25:11;97905.53;;;16.33;72.38
22753;BME280;11543;43.144;24.684;2023-04-25T19:27:40;97900.75;;;16.29;72.49
22753;BME280;11543;43.144;24.684;2023-04-25T19:30:06;97897.47;;;16.20;72.58
22753;BME280;11543;43.144;24.684;2023-04-25T19:32:33;97915.53;;;16.26;73.32
22753;BME280;11543;43.144;24.684;2023-04-25T19:35:00;97916.22;;;16.15;73.64
22753;BME280;11543;43.144;24.684;2023-04-25T19:37:26;97910.78;;;16.15;73.62
22753;BME280;11543;43.144;24.684;2023-04-25T19:39:52;97914.56;;;16.07;74.08
22753;BME280;11543;43.144;24.684;2023-04-25T19:42:18;97905.03;;;15.98;74.04
22753;BME280;11543;43.144;24.684;2023-04-25T19:44:46;97922.66;;;16.14;74.12
22753;BME280;11543;43.144;24.684;2023-04-25T19:47:12;97904.38;;;16.03;74.40
22753;BME280;11543;43.144;24.684;2023-04-25T19:49:37;97922.69;;;16.07;74.36
22753;BME280;11543;43.144;24.684;2023-04-25T19:55:17;97898.78;;;15.98;74.55
22753;BME280;11543;43.144;24.684;2023-04-25T19:58:03;97907.50;;;16.00;74.47
22753;BME280;11543;43.144;24.684;2023-04-25T20:00:31;97904.00;;;15.92;74.50
22753;BME280;11543;43.144;24.684;2023-04-25T20:02:56;97901.72;;;15.89;74.61
22753;BME280;11543;43.144;24.684;2023-04-25T20:05:22;97909.41;;;15.86;74.62
22753;BME280;11543;43.144;24.684;2023-04-25T20:07:47;97928.34;;;15.86;75.05
22753;BME280;11543;43.144;24.684;2023-04-25T20:10:13;97919.41;;;15.85;75.21
22753;BME280;11543;43.144;24.684;2023-04-25T20:13:02;97910.50;;;15.65;75.35
22753;BME280;11543;43.144;24.684;2023-04-25T20:15:46;97919.25;;;15.60;75.88
22753;BME280;11543;43.144;24.684;2023-04-25T20:18:12;97901.94;;;15.42;76.64
22753;BME280;11543;43.144;24.684;2023-04-25T20:20:42;97897.16;;;15.44;77.15
22753;BME280;11543;43.144;24.684;2023-04-25T20:23:11;97912.13;;;15.53;77.21
22753;BME280;11543;43.144;24.684;2023-04-25T20:25:47;97914.25;;;15.64;76.58
22753;BME280;11543;43.144;24.684;2023-04-25T20:28:13;97910.94;;;15.62;76.24
22753;BME280;11543;43.144;24.684;2023-04-25T20:30:44;97905.50;;;15.62;76.48
22753;BME280;11543;43.144;24.684;2023-04-25T20:33:10;97907.81;;;15.65;76.47
22753;BME280;11543;43.144;24.684;2023-04-25T20:35:38;97907.56;;;15.60;76.81
22753;BME280;11543;43.144;24.684;2023-04-25T20:38:04;97900.88;;;15.56;76.93
22753;BME280;11543;43.144;24.684;2023-04-25T20:40:29;97907.97;;;15.57;76.93
22753;BME280;11543;43.144;24.684;2023-04-25T20:42:55;97900.06;;;15.49;76.74
22753;BME280;11543;43.144;24.684;2023-04-25T20:45:54;97902.56;;;15.44;77.27
22753;BME280;11543;43.144;24.684;2023-04-25T20:48:26;97895.06;;;15.46;77.18
22753;BME280;11543;43.144;24.684;2023-04-25T20:53:44;97891.34;;;15.47;76.78
22753;BME280;11543;43.144;24.684;2023-04-25T20:56:10;97887.81;;;15.40;76.95
22753;BME280;11543;43.144;24.684;2023-04-25T20:58:37;97900.69;;;15.51;76.98
22753;BME280;11543;43.144;24.684;2023-04-25T21:01:03;97911.69;;;15.56;76.93
22753;BME280;11543;43.144;24.684;2023-04-25T21:03:31;97884.69;;;15.43;77.04
22753;BME280;11543;43.144;24.684;2023-04-25T21:05:56;97895.06;;;15.52;76.96
22753;BME280;11543;43.144;24.684;2023-04-25T21:08:22;97903.38;;;15.51;77.04
22753;BME280;11543;43.144;24.684;2023-04-25T21:10:48;97892.59;;;15.38;76.90
22753;BME280;11543;43.144;24.684;2023-04-25T21:13:13;97888.00;;;15.32;77.42
22753;BME280;11543;43.144;24.684;2023-04-25T21:15:39;97902.34;;;15.32;77.37
22753;BME280;11543;43.144;24.684;2023-04-25T21:18:04;97894.25;;;15.25;77.85
22753;BME280;11543;43.144;24.684;2023-04-25T21:20:31;97904.22;;;15.25;78.05
22753;BME280;11543;43.144;24.684;2023-04-25T21:22:59;97898.00;;;15.11;78.43
22753;BME280;11543;43.144;24.684;2023-04-25T21:25:27;97900.06;;;15.09;78.65
22753;BME280;11543;43.144;24.684;2023-04-25T21:27:56;97892.59;;;15.05;78.66
22753;BME280;11543;43.144;24.684;2023-04-25T21:30:23;97897.97;;;14.98;78.66
22753;BME280;11543;43.144;24.684;2023-04-25T21:32:57;97890.09;;;14.90;78.19
22753;BME280;11543;43.144;24.684;2023-04-25T21:35:33;97890.28;;;14.82;77.81
22753;BME280;11543;43.144;24.684;2023-04-25T21:38:07;97884.03;;;14.75;77.91
22753;BME280;11543;43.144;24.684;2023-04-25T21:40:33;97883.38;;;14.73;77.84
22753;BME280;11543;43.144;24.684;2023-04-25T21:43:25;97918.53;;;14.86;78.08
22753;BME280;11543;43.144;24.684;2023-04-25T21:46:08;97890.44;;;14.74;77.97
22753;BME280;11543;43.144;24.684;2023-04-25T21:48:56;97911.69;;;14.90;77.63
22753;BME280;11543;43.144;24.684;2023-04-25T21:51:28;97898.16;;;14.83;77.50
22753;BME280;11543;43.144;24.684;2023-04-25T21:54:06;97902.97;;;14.88;77.41
22753;BME280;11543;43.144;24.684;2023-04-25T21:56:32;97903.78;;;14.82;77.31
22753;BME280;11543;43.144;24.684;2023-04-25T21:59:01;97888.41;;;14.76;77.17
22753;BME280;11543;43.144;24.684;2023-04-25T22:01:44;97888.78;;;14.73;77.13
22753;BME280;11543;43.144;24.684;2023-04-25T22:04:41;97918.31;;;14.81;77.68
22753;BME280;11543;43.144;24.684;2023-04-25T22:07:36;97907.06;;;14.71;77.53
22753;BME280;11543;43.144;24.684;2023-04-25T22:10:30;97886.69;;;14.61;77.45
22753;BME280;11543;43.144;24.684;2023-04-25T22:13:22;97909.53;;;14.72;77.63
22753;BME280;11543;43.144;24.684;2023-04-25T22:16:14;97887.09;;;14.65;77.51
22753;BME280;11543;43.144;24.684;2023-04-25T22:18:41;97885.00;;;14.60;77.31
22753;BME280;11543;43.144;24.684;2023-04-25T22:21:09;97902.47;;;14.64;77.07
22753;BME280;11543;43.144;24.684;2023-04-25T22:23:35;97908.09;;;14.70;77.34
22753;BME280;11543;43.144;24.684;2023-04-25T22:26:01;97904.94;;;14.59;77.17
22753;BME280;11543;43.144;24.684;2023-04-25T22:28:27;97895.38;;;14.57;77.16
22753;BME280;11543;43.144;24.684;2023-04-25T22:30:52;97898.72;;;14.59;76.96
22753;BME280;11543;43.144;24.684;2023-04-25T22:33:21;97892.03;;;14.48;76.82
22753;BME280;11543;43.144;24.684;2023-04-25T22:35:54;97888.72;;;14.46;77.21
22753;BME280;11543;43.144;24.684;2023-04-25T22:38:29;97887.38;;;14.29;77.59
22753;BME280;11543;43.144;24.684;2023-04-25T22:40:54;97889.44;;;14.27;78.13
22753;BME280;11543;43.144;24.684;2023-04-25T22:43:20;97896.06;;;14.18;78.38
22753;BME280;11543;43.144;24.684;2023-04-25T22:45:46;97893.09;;;14.06;78.51
22753;BME280;11543;43.144;24.684;2023-04-25T22:48:11;97908.47;;;14.12;78.63
22753;BME280;11543;43.144;24.684;2023-04-25T22:50:40;97890.94;;;13.88;79.35
22753;BME280;11543;43.144;24.684;2023-04-25T22:53:09;97893.88;;;13.93;79.66
22753;BME280;11543;43.144;24.684;2023-04-25T22:55:35;97888.97;;;14.10;79.19
22753;BME280;11543;43.144;24.684;2023-04-25T22:58:04;97899.38;;;14.20;78.89
22753;BME280;11543;43.144;24.684;2023-04-25T23:00:32;97897.69;;;14.12;78.78
22753;BME280;11543;43.144;24.684;2023-04-25T23:02:58;97877.63;;;13.87;78.85
22753;BME280;11543;43.144;24.684;2023-04-25T23:05:24;97889.28;;;13.87;79.19
22753;BME280;11543;43.144;24.684;2023-04-25T23:07:50;97892.34;;;13.84;79.54
22753;BME280;11543;43.144;24.684;2023-04-25T23:10:16;97886.06;;;13.77;79.94
22753;BME280;11543;43.144;24.684;2023-04-25T23:12:43;97877.50;;;13.67;79.94
22753;BME280;11543;43.144;24.684;2023-04-25T23:15:09;97894.94;;;13.71;79.69
22753;BME280;11543;43.144;24.684;2023-04-25T23:17:34;97889.97;;;13.68;79.74
22753;BME280;11543;43.144;24.684;2023-04-25T23:20:01;97877.03;;;13.57;79.77
22753;BME280;11543;43.144;24.684;2023-04-25T23:22:29;97872.28;;;13.59;79.82
22753;BME280;11543;43.144;24.684;2023-04-25T23:24:55;97869.97;;;13.56;79.99
22753;BME280;11543;43.144;24.684;2023-04-25T23:27:20;97887.03;;;13.63;80.08
22753;BME280;11543;43.144;24.684;2023-04-25T23:29:52;97859.63;;;13.59;79.83
22753;BME280;11543;43.144;24.684;2023-04-25T23:32:20;97879.56;;;13.65;80.00
22753;BME280;11543;43.144;24.684;2023-04-25T23:34:46;97872.69;;;13.56;79.88
22753;BME280;11543;43.144;24.684;2023-04-25T23:37:12;97862.41;;;13.38;79.82
22753;BME280;11543;43.144;24.684;2023-04-25T23:39:40;97863.53;;;13.22;80.00
22753;BME280;11543;43.144;24.684;2023-04-25T23:42:06;97868.94;;;13.22;80.26
22753;BME280;11543;43.144;24.684;2023-04-25T23:44:32;97878.09;;;13.28;80.31
22753;BME280;11543;43.144;24.684;2023-04-25T23:47:00;97865.22;;;13.23;80.57
22753;BME280;11543;43.144;24.684;2023-04-25T23:49:26;97865.84;;;13.25;80.38
22753;BME280;11543;43.144;24.684;2023-04-25T23:51:51;97856.47;;;13.21;80.44
22753;BME280;11543;43.144;24.684;2023-04-25T23:54:17;97872.50;;;13.29;80.81
22753;BME280;11543;43.144;24.684;2023-04-25T23:56:42;97842.69;;;13.10;80.80
22753;BME280;11543;43.144;24.684;2023-04-25T23:59:08;97857.91;;;13.17;80.91
